createdAt,value
2023-02-14T00:00:39.586Z,87.34
2023-02-14T00:03:06.313Z,87.02
2023-02-14T00:05:32.994Z,87.42
2023-02-14T00:07:59.941Z,86.41
2023-02-14T00:10:26.712Z,86.52
2023-02-14T00:12:53.304Z,86.83
2023-02-14T00:15:22.925Z,86.78
2023-02-14T00:17:51.860Z,86.04
2023-02-14T00:20:18.870Z,86.58
2023-02-14T00:22:45.406Z,86.84
2023-02-14T00:25:12.357Z,87.33
2023-02-14T00:27:39.245Z,87.75
2023-02-14T00:30:07.979Z,87.15
2023-02-14T00:32:37.149Z,87.41
2023-02-14T00:35:03.776Z,86.47
2023-02-14T00:37:30.387Z,87.06
2023-02-14T00:39:57.062Z,87.92
2023-02-14T00:42:23.872Z,88.24
2023-02-14T00:44:50.477Z,87.52
2023-02-14T00:47:17.084Z,88.22
2023-02-14T00:49:43.645Z,87.56
2023-02-14T00:52:10.217Z,88.41
2023-02-14T00:54:36.892Z,87.76
2023-02-14T00:57:03.648Z,88.64
2023-02-14T00:59:30.229Z,87.79
2023-02-14T01:01:57.032Z,87.57
2023-02-14T01:04:23.948Z,88.21
2023-02-14T01:06:50.515Z,87.48
2023-02-14T01:09:17.283Z,87.95
2023-02-14T01:11:43.946Z,88.01
2023-02-14T01:14:10.586Z,89.00
2023-02-14T01:16:39.202Z,89.12
2023-02-14T01:19:05.937Z,89.84
2023-02-14T01:21:34.152Z,88.60
2023-02-14T01:24:04.082Z,89.70
2023-02-14T01:26:31.195Z,89.64
2023-02-14T01:28:58.184Z,90.60
2023-02-14T01:31:30.703Z,90.70
2023-02-14T01:33:58.415Z,91.14
2023-02-14T01:36:35.259Z,91.64
2023-02-14T01:39:06.244Z,92.89
2023-02-14T01:41:36.163Z,93.23
2023-02-14T01:44:04.586Z,91.34
2023-02-14T01:46:34.853Z,91.36
2023-02-14T01:49:07.376Z,91.32
2023-02-14T01:51:35.812Z,91.36
2023-02-14T01:54:03.673Z,91.46
2023-02-14T01:56:36.515Z,91.56
2023-02-14T01:59:07.728Z,91.83
2023-02-14T02:01:34.403Z,90.31
2023-02-14T02:04:14.500Z,89.73
2023-02-14T02:06:48.165Z,90.04
2023-02-14T02:09:22.057Z,89.84
2023-02-14T02:11:49.075Z,88.99
2023-02-14T02:14:21.447Z,89.35
2023-02-14T02:16:51.272Z,88.93
2023-02-14T02:19:43.932Z,88.05
2023-02-14T02:22:22.701Z,87.85
2023-02-14T02:25:37.978Z,88.48
2023-02-14T02:28:32.208Z,87.76
2023-02-14T02:31:11.449Z,88.08
2023-02-14T02:33:53.054Z,88.72
2023-02-14T02:36:36.386Z,88.36
2023-02-14T02:39:34.627Z,87.61
2023-02-14T02:42:08.414Z,87.28
2023-02-14T02:45:03.727Z,88.23
2023-02-14T02:48:10.035Z,88.34
2023-02-14T02:51:04.136Z,87.70
2023-02-14T02:53:33.310Z,88.05
2023-02-14T02:56:28.761Z,88.45
2023-02-14T02:59:24.047Z,88.96
2023-02-14T03:02:18.741Z,88.56
2023-02-14T03:04:55.428Z,88.50
2023-02-14T03:07:42.632Z,88.48
2023-02-14T03:10:14.133Z,87.91
2023-02-14T03:13:40.161Z,88.67
2023-02-14T03:16:27.167Z,88.71
2023-02-14T03:19:40.393Z,88.24
2023-02-14T03:22:21.615Z,88.75
2023-02-14T03:25:00.660Z,87.62
2023-02-14T03:27:32.735Z,88.30
2023-02-14T03:30:02.330Z,88.72
2023-02-14T03:32:34.814Z,89.39
2023-02-14T03:35:01.346Z,89.82
2023-02-14T03:37:47.089Z,91.19
2023-02-14T03:40:24.336Z,90.80
2023-02-14T03:42:55.953Z,90.82
2023-02-14T03:45:29.242Z,89.34
2023-02-14T03:48:01.888Z,88.84
2023-02-14T03:50:31.409Z,89.70
2023-02-14T03:53:00.133Z,89.04
2023-02-14T03:56:07.112Z,89.61
2023-02-14T03:58:45.026Z,88.80
2023-02-14T04:01:42.342Z,90.31
2023-02-14T04:04:09.919Z,89.94
2023-02-14T04:06:36.515Z,89.43
2023-02-14T04:09:03.761Z,89.33
2023-02-14T04:11:35.083Z,89.54
2023-02-14T04:14:02.669Z,89.23
2023-02-14T04:16:29.301Z,88.72
2023-02-14T04:19:14.487Z,88.56
2023-02-14T04:21:41.327Z,87.98
2023-02-14T04:24:08.442Z,88.18
2023-02-14T04:26:35.002Z,87.52
2023-02-14T04:29:01.922Z,88.18
2023-02-14T04:31:28.607Z,88.26
2023-02-14T04:33:55.435Z,88.13
2023-02-14T04:36:22.097Z,87.19
2023-02-14T04:38:48.725Z,87.79
2023-02-14T04:41:15.509Z,88.03
2023-02-14T04:43:42.332Z,87.59
2023-02-14T04:46:09.079Z,87.87
2023-02-14T04:48:35.732Z,87.22
2023-02-14T04:51:02.780Z,87.00
2023-02-14T04:53:29.392Z,86.84
2023-02-14T04:55:55.956Z,86.91
2023-02-14T04:58:22.673Z,86.59
2023-02-14T05:00:49.289Z,85.72
2023-02-14T05:03:15.957Z,85.58
2023-02-14T05:05:42.537Z,85.68
2023-02-14T05:08:09.092Z,86.03
2023-02-14T05:10:35.700Z,86.29
2023-02-14T05:13:02.477Z,86.15
2023-02-14T05:15:29.229Z,85.85
2023-02-14T05:18:01.899Z,85.83
2023-02-14T05:20:29.625Z,85.40
2023-02-14T05:22:56.659Z,85.99
2023-02-14T05:25:23.325Z,85.37
2023-02-14T05:27:50.077Z,85.52
2023-02-14T05:30:16.925Z,84.80
2023-02-14T05:32:43.508Z,84.36
2023-02-14T05:35:10.506Z,84.38
2023-02-14T05:37:37.115Z,84.51
2023-02-14T05:40:04.184Z,84.53
2023-02-14T05:42:30.953Z,85.23
2023-02-14T05:44:57.528Z,85.38
2023-02-14T05:47:24.141Z,86.11
2023-02-14T05:49:50.894Z,86.11
2023-02-14T05:52:17.533Z,86.13
2023-02-14T05:54:44.074Z,86.51
2023-02-14T05:57:10.828Z,87.38
2023-02-14T05:59:37.384Z,88.04
2023-02-14T06:02:04.050Z,88.83
2023-02-14T06:04:30.876Z,88.21
2023-02-14T06:06:57.548Z,88.56
2023-02-14T06:09:24.188Z,89.17
2023-02-14T06:11:51.090Z,87.63
2023-02-14T06:14:17.892Z,88.33
2023-02-14T06:16:44.572Z,88.78
2023-02-14T06:19:11.443Z,88.92
2023-02-14T06:21:38.170Z,88.97
2023-02-14T06:24:04.968Z,89.25
2023-02-14T06:26:31.768Z,89.23
2023-02-14T06:28:59.510Z,88.03
2023-02-14T06:31:26.535Z,87.59
2023-02-14T06:33:53.650Z,87.87
2023-02-14T06:36:20.674Z,87.92
2023-02-14T06:38:50.380Z,88.04
2023-02-14T06:41:17.304Z,87.97
2023-02-14T06:43:45.900Z,88.35
2023-02-14T06:46:12.512Z,88.10
2023-02-14T06:48:39.131Z,87.73
2023-02-14T06:51:05.935Z,87.67
2023-02-14T06:53:32.633Z,87.99
2023-02-14T06:55:59.414Z,86.96
2023-02-14T06:58:26.135Z,86.53
2023-02-14T07:00:55.434Z,86.31
2023-02-14T07:03:22.180Z,85.27
2023-02-14T07:05:48.753Z,85.09
2023-02-14T07:08:16.113Z,84.12
2023-02-14T07:10:42.752Z,83.78
2023-02-14T07:13:09.574Z,83.98
2023-02-14T07:15:36.114Z,84.00
2023-02-14T07:18:02.885Z,82.87
2023-02-14T07:20:29.592Z,83.33
2023-02-14T07:22:56.154Z,83.54
2023-02-14T07:25:22.886Z,83.56
2023-02-14T07:27:49.466Z,81.99
2023-02-14T07:30:16.433Z,82.24
2023-02-14T07:32:43.282Z,82.38
2023-02-14T07:35:10.107Z,81.83
2023-02-14T07:37:36.836Z,81.69
2023-02-14T07:40:07.357Z,82.01
2023-02-14T07:42:37.237Z,82.29
2023-02-14T07:45:20.779Z,82.84
2023-02-14T07:47:50.078Z,84.56
2023-02-14T07:50:17.209Z,86.40
2023-02-14T07:52:44.720Z,87.99
2023-02-14T07:55:11.874Z,86.95
2023-02-14T07:57:38.742Z,87.27
2023-02-14T08:00:06.562Z,87.08
2023-02-14T08:02:33.181Z,86.69
2023-02-14T08:04:59.868Z,87.20
2023-02-14T08:07:26.571Z,86.23
2023-02-14T08:09:53.148Z,86.50
2023-02-14T08:12:38.465Z,87.00
2023-02-14T08:15:23.841Z,86.35
2023-02-14T08:17:50.452Z,85.21
2023-02-14T08:20:17.229Z,85.15
2023-02-14T08:22:43.767Z,85.27
2023-02-14T08:25:10.612Z,87.01
2023-02-14T08:27:37.149Z,84.91
2023-02-14T08:30:06.257Z,84.27
2023-02-14T08:32:33.158Z,83.50
2023-02-14T08:34:59.850Z,83.36
2023-02-14T08:37:26.468Z,82.64
2023-02-14T08:39:53.081Z,81.82
2023-02-14T08:42:19.669Z,83.66
2023-02-14T08:44:46.205Z,85.15
2023-02-14T08:47:13.861Z,84.05
2023-02-14T08:49:40.426Z,85.03
2023-02-14T08:52:07.058Z,86.03
2023-02-14T08:54:33.920Z,86.08
2023-02-14T08:57:01.303Z,85.75
2023-02-14T08:59:27.843Z,84.72
2023-02-14T09:01:54.453Z,84.72
2023-02-14T09:04:21.149Z,84.08
2023-02-14T09:06:47.818Z,84.39
2023-02-14T09:09:14.706Z,82.95
2023-02-14T09:11:41.298Z,82.88
2023-02-14T09:14:07.947Z,81.97
2023-02-14T09:16:34.841Z,80.34
2023-02-14T09:19:01.556Z,82.69
2023-02-14T09:21:28.716Z,79.61
2023-02-14T09:23:55.549Z,79.49
2023-02-14T09:26:22.234Z,80.92
2023-02-14T09:28:48.872Z,81.76
2023-02-14T09:31:21.054Z,82.76
2023-02-14T09:33:49.629Z,81.69
2023-02-14T09:36:18.985Z,82.15
2023-02-14T09:38:46.241Z,82.83
2023-02-14T09:41:31.211Z,84.18
2023-02-14T09:44:06.880Z,84.14
2023-02-14T09:46:42.947Z,82.51
2023-02-14T09:49:18.359Z,82.92
2023-02-14T09:51:51.776Z,84.49
2023-02-14T09:54:27.427Z,83.22
2023-02-14T09:57:12.493Z,82.32
2023-02-14T10:00:13.720Z,81.91
2023-02-14T10:03:08.248Z,81.49
2023-02-14T10:05:43.862Z,83.39
2023-02-14T10:08:41.070Z,83.73
2023-02-14T10:11:12.896Z,84.91
2023-02-14T10:13:44.815Z,84.73
2023-02-14T10:16:44.065Z,83.81
2023-02-14T10:19:16.669Z,82.77
2023-02-14T10:21:51.921Z,83.98
2023-02-14T10:24:36.822Z,83.66
2023-02-14T10:27:18.678Z,82.57
2023-02-14T10:29:45.276Z,83.59
2023-02-14T10:32:14.935Z,83.43
2023-02-14T10:34:52.008Z,83.31
2023-02-14T10:37:31.199Z,83.09
2023-02-14T10:40:03.587Z,81.88
2023-02-14T10:42:39.063Z,82.55
2023-02-14T10:45:13.271Z,82.17
2023-02-14T10:47:51.747Z,83.52
2023-02-14T10:50:32.084Z,82.84
2023-02-14T10:53:01.609Z,82.15
2023-02-14T10:55:55.260Z,82.67
2023-02-14T10:58:24.038Z,81.33
2023-02-14T11:01:05.519Z,81.60
2023-02-14T11:03:33.402Z,80.37
2023-02-14T11:06:00.096Z,79.83
2023-02-14T11:08:35.652Z,79.59
2023-02-14T11:11:14.636Z,78.63
2023-02-14T11:13:42.384Z,78.00
2023-02-14T11:16:12.205Z,77.88
2023-02-14T11:18:41.245Z,78.22
2023-02-14T11:21:14.397Z,78.73
2023-02-14T11:23:42.469Z,78.95
2023-02-14T11:26:11.526Z,79.50
2023-02-14T11:28:48.858Z,78.20
2023-02-14T11:31:25.428Z,78.37
2023-02-14T11:33:54.497Z,78.32
2023-02-14T11:36:21.638Z,77.44
2023-02-14T11:39:15.837Z,77.90
2023-02-14T11:41:55.464Z,77.10
2023-02-14T11:44:25.087Z,76.64
2023-02-14T11:46:54.258Z,75.56
2023-02-14T11:49:28.521Z,74.84
2023-02-14T11:51:57.248Z,75.31
2023-02-14T11:54:35.013Z,74.96
2023-02-14T11:57:17.641Z,74.56
2023-02-14T11:59:49.496Z,72.80
2023-02-14T12:02:25.214Z,72.04
2023-02-14T12:05:05.348Z,71.71
2023-02-14T12:07:36.229Z,72.67
2023-02-14T12:10:10.923Z,70.79
2023-02-14T12:12:37.554Z,71.66
2023-02-14T12:15:24.545Z,71.41
2023-02-14T12:18:32.839Z,70.79
2023-02-14T12:21:16.090Z,70.45
2023-02-14T12:23:57.080Z,70.25
2023-02-14T12:26:29.858Z,70.67
2023-02-14T12:29:17.415Z,69.21
2023-02-14T12:31:46.772Z,67.78
2023-02-14T12:34:15.189Z,67.56
2023-02-14T12:37:02.277Z,66.70
2023-02-14T12:40:07.539Z,66.33
2023-02-14T12:43:05.162Z,65.97
2023-02-14T12:45:49.987Z,64.86
2023-02-14T12:49:03.402Z,66.58
2023-02-14T12:51:50.460Z,66.22
2023-02-14T12:54:41.919Z,66.81
2023-02-14T12:57:22.610Z,66.42
2023-02-14T13:00:17.622Z,65.71
2023-02-14T13:03:10.477Z,66.49
2023-02-14T13:05:58.746Z,66.29
2023-02-14T13:08:31.523Z,66.58
2023-02-14T13:11:05.802Z,65.57
2023-02-14T13:14:03.742Z,65.96
2023-02-14T13:16:52.445Z,65.00
2023-02-14T13:19:36.757Z,65.95
2023-02-14T13:22:06.419Z,65.67
2023-02-14T13:24:42.263Z,65.57
2023-02-14T13:27:16.980Z,65.32
2023-02-14T13:29:51.596Z,65.91
2023-02-14T13:32:25.862Z,66.26
2023-02-14T13:34:53.608Z,66.21
2023-02-14T13:37:24.226Z,66.89
2023-02-14T13:39:56.556Z,67.30
2023-02-14T13:42:50.684Z,67.27
2023-02-14T13:45:29.555Z,66.74
2023-02-14T13:48:14.093Z,68.14
2023-02-14T13:51:01.022Z,66.11
2023-02-14T13:53:37.867Z,65.39
2023-02-14T13:56:24.873Z,65.31
2023-02-14T13:59:05.389Z,65.11
2023-02-14T14:01:35.759Z,65.01
2023-02-14T14:04:30.472Z,65.64
2023-02-14T14:07:03.252Z,65.56
2023-02-14T14:09:42.235Z,64.25
2023-02-14T14:12:27.616Z,63.37
2023-02-14T14:15:06.555Z,62.73
2023-02-14T14:17:34.815Z,62.39
2023-02-14T14:20:04.372Z,62.01
2023-02-14T14:22:31.209Z,60.75
2023-02-14T14:25:01.340Z,60.69
2023-02-14T14:27:35.518Z,59.61
2023-02-14T14:30:06.773Z,59.91
2023-02-14T14:32:38.281Z,59.36
2023-02-14T14:35:26.528Z,59.66
2023-02-14T14:37:59.218Z,59.87
2023-02-14T14:40:32.213Z,58.83
2023-02-14T14:43:24.227Z,58.44
2023-02-14T14:45:53.212Z,58.34
2023-02-14T14:48:41.277Z,58.10
2023-02-14T14:51:15.791Z,58.32
2023-02-14T14:54:04.955Z,59.21
2023-02-14T14:56:35.482Z,58.10
2023-02-14T14:59:27.837Z,58.61
2023-02-14T15:01:54.713Z,58.77
2023-02-14T15:04:35.405Z,57.95
2023-02-14T15:07:30.343Z,57.33
2023-02-14T15:09:56.954Z,56.65
2023-02-14T15:12:43.857Z,57.77
2023-02-14T15:15:13.800Z,57.65
2023-02-14T15:17:42.147Z,58.10
2023-02-14T15:20:15.280Z,59.57
2023-02-14T15:22:44.700Z,59.91
2023-02-14T15:25:18.247Z,60.98
2023-02-14T15:27:45.680Z,60.67
2023-02-14T15:30:34.374Z,60.28
2023-02-14T15:33:03.487Z,59.98
2023-02-14T15:35:33.657Z,61.48
2023-02-14T15:38:04.533Z,61.38
2023-02-14T15:40:34.380Z,61.99
2023-02-14T15:43:13.273Z,63.07
2023-02-14T15:45:40.796Z,63.76
2023-02-14T15:48:12.390Z,63.22
2023-02-14T15:50:52.629Z,63.79
2023-02-14T15:53:19.240Z,62.72
2023-02-14T15:55:50.381Z,62.24
2023-02-14T15:58:29.863Z,62.07
2023-02-14T16:00:56.669Z,62.64
2023-02-14T16:03:26.535Z,62.22
2023-02-14T16:05:55.014Z,60.84
2023-02-14T16:08:30.399Z,61.79
2023-02-14T16:11:13.883Z,64.36
2023-02-14T16:13:43.686Z,65.92
2023-02-14T16:16:12.375Z,65.57
2023-02-14T16:18:41.332Z,66.14
2023-02-14T16:21:24.438Z,68.42
2023-02-14T16:24:15.804Z,70.99
2023-02-14T16:26:44.599Z,71.45
2023-02-14T16:29:15.004Z,72.62
2023-02-14T16:34:38.137Z,73.76
2023-02-14T16:37:25.552Z,74.35
2023-02-14T16:39:57.669Z,73.97
2023-02-14T16:42:24.868Z,74.65
2023-02-14T16:44:52.216Z,75.70
2023-02-14T16:47:21.112Z,76.35
2023-02-14T16:49:47.735Z,75.53
2023-02-14T16:52:23.392Z,76.41
2023-02-14T16:54:50.420Z,77.44
2023-02-14T16:57:23.275Z,78.92
2023-02-14T16:59:50.659Z,78.93
2023-02-14T17:02:19.054Z,78.80
2023-02-14T17:04:46.093Z,80.07
2023-02-14T17:07:15.539Z,79.74
2023-02-14T17:09:47.786Z,78.72
2023-02-14T17:12:18.480Z,79.63
2023-02-14T17:14:51.776Z,80.48
2023-02-14T17:17:18.793Z,81.55
2023-02-14T17:19:45.615Z,80.64
2023-02-14T17:22:13.598Z,78.42
2023-02-14T17:24:40.774Z,80.64
2023-02-14T17:27:08.556Z,80.82
2023-02-14T17:29:35.255Z,82.08
2023-02-14T17:32:02.001Z,83.05
2023-02-14T17:34:32.868Z,83.00
2023-02-14T17:37:00.031Z,81.41
2023-02-14T17:39:26.784Z,81.27
2023-02-14T17:41:53.458Z,82.59
2023-02-14T17:44:20.122Z,82.98
2023-02-14T17:46:46.844Z,83.05
2023-02-14T17:49:13.744Z,83.85
2023-02-14T17:51:41.013Z,84.73
2023-02-14T17:54:08.223Z,84.77
2023-02-14T17:56:35.586Z,83.84
2023-02-14T17:59:02.408Z,83.09
2023-02-14T18:01:34.490Z,82.12
2023-02-14T18:04:01.178Z,82.53
2023-02-14T18:06:27.965Z,83.67
2023-02-14T18:08:57.153Z,84.28
2023-02-14T18:11:26.131Z,85.66
2023-02-14T18:13:58.157Z,85.38
2023-02-14T18:16:25.997Z,86.03
2023-02-14T18:18:53.684Z,85.58
2023-02-14T18:21:21.781Z,85.29
2023-02-14T18:23:48.470Z,85.83
2023-02-14T18:26:16.722Z,84.84
2023-02-14T18:28:43.560Z,85.92
2023-02-14T18:31:15.842Z,85.28
2023-02-14T18:33:42.927Z,85.20
2023-02-14T18:36:12.407Z,84.71
2023-02-14T18:38:44.138Z,86.08
2023-02-14T18:41:13.817Z,85.95
2023-02-14T18:43:44.542Z,86.25
2023-02-14T18:46:13.941Z,85.66
2023-02-14T18:48:40.911Z,85.93
2023-02-14T18:51:12.041Z,86.71
2023-02-14T18:53:39.695Z,86.56
2023-02-14T18:56:08.180Z,86.44
2023-02-14T18:58:35.595Z,85.83
2023-02-14T19:01:14.783Z,85.64
2023-02-14T19:03:41.936Z,86.60
2023-02-14T19:06:09.967Z,86.46
2023-02-14T19:08:38.751Z,86.44
2023-02-14T19:11:11.741Z,86.55
2023-02-14T19:13:38.380Z,85.59
2023-02-14T19:16:13.224Z,85.78
2023-02-14T19:18:40.156Z,86.92
2023-02-14T19:21:12.224Z,86.45
2023-02-14T19:23:39.079Z,86.64
2023-02-14T19:26:14.974Z,86.50
2023-02-14T19:28:42.544Z,86.25
2023-02-14T19:31:10.471Z,86.53
2023-02-14T19:33:41.725Z,86.71
2023-02-14T19:36:12.699Z,87.52
2023-02-14T19:38:40.493Z,86.92
2023-02-14T19:41:17.744Z,87.62
2023-02-14T19:43:45.974Z,87.99
2023-02-14T19:46:13.877Z,87.34
2023-02-14T19:48:40.911Z,87.59
2023-02-14T19:51:08.049Z,87.02
2023-02-14T19:53:35.534Z,87.67
2023-02-14T19:56:02.289Z,87.22
2023-02-14T19:58:28.861Z,87.11
2023-02-14T20:01:00.325Z,87.11
2023-02-14T20:03:27.288Z,87.26
2023-02-14T20:05:54.024Z,86.41
2023-02-14T20:08:20.670Z,87.85
2023-02-14T20:10:47.537Z,86.35
2023-02-14T20:13:14.112Z,86.73
2023-02-14T20:15:42.319Z,87.25
2023-02-14T20:18:09.232Z,86.98
2023-02-14T20:20:55.888Z,86.73
2023-02-14T20:23:22.849Z,86.98
2023-02-14T20:25:49.499Z,86.21
2023-02-14T20:28:16.226Z,87.24
2023-02-14T20:30:42.936Z,87.48
2023-02-14T20:33:09.651Z,86.35
2023-02-14T20:35:42.110Z,86.52
2023-02-14T20:38:08.874Z,86.49
2023-02-14T20:40:40.122Z,87.04
2023-02-14T20:43:06.735Z,88.50
2023-02-14T20:45:33.622Z,87.90
2023-02-14T20:48:04.086Z,87.08
2023-02-14T20:50:31.473Z,86.87
2023-02-14T20:52:58.777Z,87.87
2023-02-14T20:55:27.721Z,87.01
2023-02-14T20:57:55.142Z,85.93
2023-02-14T21:00:25.845Z,87.16
2023-02-14T21:02:53.183Z,87.30
2023-02-14T21:05:21.257Z,88.58
2023-02-14T21:07:48.331Z,86.69
2023-02-14T21:10:16.923Z,87.14
2023-02-14T21:12:43.523Z,86.42
2023-02-14T21:15:11.665Z,86.18
2023-02-14T21:17:38.269Z,85.66
2023-02-14T21:20:10.733Z,86.74
2023-02-14T21:22:38.107Z,88.08
2023-02-14T21:25:05.900Z,88.15
2023-02-14T21:27:32.431Z,88.52
2023-02-14T21:29:59.115Z,87.86
2023-02-14T21:32:28.417Z,86.86
2023-02-14T21:34:55.421Z,87.28
2023-02-14T21:37:22.655Z,86.63
2023-02-14T21:39:50.199Z,87.16
2023-02-14T21:42:18.797Z,87.88
2023-02-14T21:45:04.654Z,88.02
2023-02-14T21:47:31.200Z,88.31
2023-02-14T21:50:19.428Z,88.95
2023-02-14T21:52:45.981Z,88.43
2023-02-14T21:55:12.516Z,89.05
2023-02-14T21:57:39.731Z,88.01
2023-02-14T22:00:07.065Z,87.83
2023-02-14T22:02:33.708Z,88.44
2023-02-14T22:05:00.597Z,88.03
2023-02-14T22:07:28.985Z,87.63
2023-02-14T22:09:55.608Z,87.04
2023-02-14T22:12:22.378Z,87.11
2023-02-14T22:14:49.021Z,88.74
2023-02-14T22:17:15.605Z,89.24
2023-02-14T22:19:42.448Z,89.49
2023-02-14T22:22:09.017Z,89.15
2023-02-14T22:24:35.690Z,88.41
2023-02-14T22:27:02.541Z,88.82
2023-02-14T22:29:29.589Z,88.61
2023-02-14T22:31:56.249Z,87.97
2023-02-14T22:34:22.963Z,88.61
2023-02-14T22:36:49.727Z,87.75
2023-02-14T22:39:17.100Z,88.05
2023-02-14T22:41:44.377Z,87.90
2023-02-14T22:44:12.890Z,87.92
2023-02-14T22:46:39.985Z,87.96
2023-02-14T22:49:07.445Z,87.01
2023-02-14T22:51:39.125Z,87.79
2023-02-14T22:54:08.874Z,87.58
2023-02-14T22:56:38.963Z,87.06
2023-02-14T22:59:18.205Z,87.80
2023-02-14T23:01:45.701Z,87.73
2023-02-14T23:04:13.436Z,88.30
2023-02-14T23:06:40.233Z,89.09
2023-02-14T23:09:09.270Z,87.90
2023-02-14T23:11:38.565Z,88.46
2023-02-14T23:14:24.831Z,89.05
2023-02-14T23:17:10.092Z,88.74
2023-02-14T23:19:56.452Z,88.39
2023-02-14T23:22:29.380Z,89.10
2023-02-14T23:24:58.367Z,89.15
2023-02-14T23:27:35.271Z,88.85
2023-02-14T23:30:03.194Z,89.16
2023-02-14T23:32:29.813Z,88.90
2023-02-14T23:34:58.039Z,89.81
2023-02-14T23:37:25.242Z,90.39
2023-02-14T23:39:51.826Z,88.92
2023-02-14T23:42:18.796Z,90.38
2023-02-14T23:44:46.396Z,91.04
2023-02-14T23:47:14.329Z,90.49
2023-02-14T23:49:41.198Z,91.13
2023-02-14T23:52:10.799Z,90.93
2023-02-14T23:54:38.061Z,90.33
2023-02-14T23:57:05.650Z,90.92
2023-02-14T23:59:32.287Z,90.57
